Cynthiana, Kentucky
Current Conditions -  °F | °C
As of 3:15 AM on Monday 26 Jan 2015 (Local Time) from KIOB Reporting Station
Moderate Fog Moderate Fog  
Wind Chill: 32°   Ceiling: 200
Heat Index: 37°   Visibility: 0.5mi
Dew Point: 37°   Wind: 7mph
Humidity: 100%   Direction: 350°N
Pressure: 29.66"   Gusts: NA
Location:  38.39°N, 84.29°W
Report Text: KIOB 260815Z AUTO 35006KT 1/2SM FG OVC002 03/03 A2966 RMK AO2
Loading
Personal Weather Stations






























Interactive Weather Map New forecast layout! Learn more

10-Day Weather Forecast

Advertisements
Track Severe Weather on mobile